createdAt,value
2018-06-15T00:01:51.590Z,93966.33
2018-06-15T00:04:19.233Z,93954.28
2018-06-15T00:06:46.971Z,93964.42
2018-06-15T00:09:14.653Z,93963.61
2018-06-15T00:11:42.350Z,93958.35
2018-06-15T00:14:10.027Z,93964.31
2018-06-15T00:16:37.782Z,93962.72
2018-06-15T00:19:05.649Z,93960.16
2018-06-15T00:21:33.338Z,93953.09
2018-06-15T00:24:01.041Z,93948.61
2018-06-15T00:26:28.954Z,93954.08
2018-06-15T00:28:56.651Z,93948.94
2018-06-15T00:31:24.306Z,93938.41
2018-06-15T00:33:52.035Z,93936.28
2018-06-15T00:36:19.695Z,93934.34
2018-06-15T00:38:47.381Z,93941.73
2018-06-15T00:41:15.112Z,93943.56
2018-06-15T00:43:42.881Z,93938.30
2018-06-15T00:46:10.563Z,93939.30
2018-06-15T00:48:38.511Z,93937.79
2018-06-15T00:51:06.188Z,93935.58
2018-06-15T00:53:33.854Z,93934.67
2018-06-15T00:56:01.528Z,93928.77
2018-06-15T00:58:29.237Z,93922.53
2018-06-15T01:00:56.916Z,93921.60
2018-06-15T01:03:24.579Z,93922.33
2018-06-15T01:05:52.443Z,93914.61
2018-06-15T01:08:20.095Z,93913.63
2018-06-15T01:10:47.767Z,93912.49
2018-06-15T01:13:15.494Z,93912.59
2018-06-15T01:15:43.144Z,93912.52
2018-06-15T01:18:10.822Z,93912.28
2018-06-15T01:20:38.591Z,93912.98
2018-06-15T01:23:06.276Z,93914.02
2018-06-15T01:25:33.975Z,93912.67
2018-06-15T01:28:01.658Z,93909.77
2018-06-15T01:30:29.426Z,93913.59
2018-06-15T01:32:57.113Z,93913.00
2018-06-15T01:35:24.778Z,93910.65
2018-06-15T01:37:52.498Z,93909.52
2018-06-15T01:40:20.170Z,93904.25
2018-06-15T01:42:47.847Z,93909.52
2018-06-15T01:45:15.506Z,93900.41
2018-06-15T01:47:43.214Z,93903.21
2018-06-15T01:50:10.955Z,93901.63
2018-06-15T01:52:38.681Z,93902.03
2018-06-15T01:55:06.690Z,93900.72
2018-06-15T01:57:34.357Z,93898.16
2018-06-15T02:00:02.096Z,93900.20
2018-06-15T02:02:29.807Z,93895.56
2018-06-15T02:04:57.510Z,93892.03
2018-06-15T02:07:25.182Z,93898.29
2018-06-15T02:09:52.854Z,93896.89
2018-06-15T02:12:20.579Z,93901.34
2018-06-15T02:14:48.344Z,93898.72
2018-06-15T02:17:16.000Z,93897.50
2018-06-15T02:19:43.689Z,93893.20
2018-06-15T02:22:11.378Z,93902.27
2018-06-15T02:24:39.047Z,93901.08
2018-06-15T02:27:06.751Z,93906.53
2018-06-15T02:29:34.453Z,93906.91
2018-06-15T02:32:02.167Z,93906.43
2018-06-15T02:34:29.844Z,93910.59
2018-06-15T02:36:57.571Z,93909.47
2018-06-15T02:39:25.210Z,93908.16
2018-06-15T02:41:52.906Z,93908.75
2018-06-15T02:44:20.852Z,93907.80
2018-06-15T02:46:48.516Z,93905.17
2018-06-15T02:49:16.167Z,93917.25
2018-06-15T02:51:43.943Z,93915.31
2018-06-15T02:54:11.619Z,93917.63
2018-06-15T02:56:39.408Z,93924.82
2018-06-15T02:59:07.084Z,93916.69
2018-06-15T03:01:34.746Z,93927.29
2018-06-15T03:04:02.507Z,93915.97
2018-06-15T03:06:30.175Z,93915.56
2018-06-15T03:08:57.892Z,93919.98
2018-06-15T03:11:25.553Z,93910.02
2018-06-15T03:13:53.252Z,93910.80
2018-06-15T03:16:20.967Z,93906.55
2018-06-15T03:18:48.639Z,93909.02
2018-06-15T03:21:16.335Z,93914.89
2018-06-15T03:23:44.017Z,93914.66
2018-06-15T03:26:11.708Z,93915.97
2018-06-15T03:28:39.413Z,93911.85
2018-06-15T03:31:07.136Z,93914.68
2018-06-15T03:33:34.814Z,93913.53
2018-06-15T03:36:02.555Z,93915.72
2018-06-15T03:38:30.198Z,93917.41
2018-06-15T03:40:57.890Z,93914.00
2018-06-15T03:43:25.567Z,93911.31
2018-06-15T03:45:53.254Z,93915.47
2018-06-15T03:48:20.922Z,93917.16
2018-06-15T03:50:48.626Z,93916.25
2018-06-15T03:53:16.316Z,93915.20
2018-06-15T03:55:44.011Z,93915.27
2018-06-15T03:58:11.737Z,93911.92
2018-06-15T04:00:39.388Z,93912.64
2018-06-15T04:03:07.117Z,93908.88
2018-06-15T04:05:34.803Z,93902.97
2018-06-15T04:08:02.510Z,93900.75
2018-06-15T04:10:30.213Z,93895.76
2018-06-15T04:12:57.909Z,93896.55
2018-06-15T04:15:25.850Z,93899.96
2018-06-15T04:18:01.047Z,93900.48
2018-06-15T04:20:28.827Z,93895.02
2018-06-15T04:22:56.537Z,93892.73
2018-06-15T04:25:24.209Z,93883.58
2018-06-15T04:27:51.958Z,93880.11
2018-06-15T04:30:19.619Z,93868.95
2018-06-15T04:32:47.658Z,93874.47
2018-06-15T04:35:15.344Z,93878.10
2018-06-15T04:37:43.056Z,93879.55
2018-06-15T04:40:10.762Z,93874.13
2018-06-15T04:42:38.423Z,93879.61
2018-06-15T04:45:06.134Z,93882.24
2018-06-15T04:47:35.734Z,93880.84
2018-06-15T04:50:03.786Z,93885.80
2018-06-15T04:52:31.469Z,93883.95
2018-06-15T04:54:59.145Z,93888.09
2018-06-15T04:57:26.938Z,93884.27
2018-06-15T04:59:54.642Z,93891.92
2018-06-15T05:02:22.360Z,93889.48
2018-06-15T05:04:50.036Z,93886.64
2018-06-15T05:07:17.747Z,93899.38
2018-06-15T05:09:45.482Z,93904.02
2018-06-15T05:12:13.154Z,93901.99
2018-06-15T05:14:40.897Z,93902.17
2018-06-15T05:17:08.571Z,93898.94
2018-06-15T05:19:36.302Z,93908.83
2018-06-15T05:22:04.106Z,93915.72
2018-06-15T05:24:31.804Z,93911.55
2018-06-15T05:26:59.495Z,93916.56
2018-06-15T05:29:27.159Z,93918.45
2018-06-15T05:31:54.934Z,93922.27
2018-06-15T05:34:22.826Z,93921.55
2018-06-15T05:36:50.639Z,93918.95
2018-06-15T05:39:18.318Z,93921.11
2018-06-15T05:41:45.984Z,93918.54
2018-06-15T05:44:13.683Z,93921.45
2018-06-15T05:46:41.346Z,93924.29
2018-06-15T05:49:09.031Z,93921.81
2018-06-15T05:51:36.719Z,93917.89
2018-06-15T05:54:04.708Z,93925.45
2018-06-15T05:56:32.402Z,93917.84
2018-06-15T05:59:00.054Z,93919.27
2018-06-15T06:01:27.807Z,93920.70
2018-06-15T06:03:55.483Z,93922.48
2018-06-15T06:06:23.191Z,93925.53
2018-06-15T06:08:50.898Z,93924.38
2018-06-15T06:11:18.581Z,93931.78
2018-06-15T06:13:46.612Z,93929.70
2018-06-15T06:16:14.294Z,93928.54
2018-06-15T06:18:41.997Z,93927.55
2018-06-15T06:21:09.690Z,93928.72
2018-06-15T06:23:37.370Z,93931.59
2018-06-15T06:26:05.326Z,93934.17
2018-06-15T06:28:33.014Z,93929.77
2018-06-15T06:31:00.661Z,93939.17
2018-06-15T06:33:28.364Z,93935.97
2018-06-15T06:35:56.125Z,93937.11
2018-06-15T06:38:23.837Z,93936.95
2018-06-15T06:40:51.607Z,93932.25
2018-06-15T06:43:19.315Z,93936.36
2018-06-15T06:45:47.214Z,93936.91
2018-06-15T06:48:14.917Z,93936.44
2018-06-15T06:50:42.639Z,93935.80
2018-06-15T06:53:10.371Z,93941.59
2018-06-15T06:55:38.100Z,93936.53
2018-06-15T06:58:05.819Z,93940.43
2018-06-15T07:00:33.552Z,93940.91
2018-06-15T07:03:01.266Z,93947.87
2018-06-15T07:05:28.950Z,93940.72
2018-06-15T07:07:56.726Z,93945.00
2018-06-15T07:10:24.395Z,93944.45
2018-06-15T07:12:52.119Z,93956.52
2018-06-15T07:15:19.802Z,93944.94
2018-06-15T07:17:47.491Z,93945.29
2018-06-15T07:20:15.192Z,93942.71
2018-06-15T07:22:43.518Z,93939.84
2018-06-15T07:25:11.189Z,93941.06
2018-06-15T07:27:38.905Z,93938.04
2018-06-15T07:30:06.639Z,93943.81
2018-06-15T07:32:34.314Z,93943.81
2018-06-15T07:35:01.997Z,93947.53
2018-06-15T07:37:29.725Z,93954.47
2018-06-15T07:39:57.424Z,93947.16
2018-06-15T07:42:25.151Z,93948.77
2018-06-15T07:44:52.819Z,93951.03
2018-06-15T07:47:20.596Z,93946.77
2018-06-15T07:49:48.385Z,93945.42
2018-06-15T07:52:16.345Z,93947.84
2018-06-15T07:54:44.121Z,93948.80
2018-06-15T07:57:11.849Z,93950.95
2018-06-15T07:59:39.626Z,93947.34
2018-06-15T08:02:07.427Z,93938.13
2018-06-15T08:04:35.182Z,93943.38
2018-06-15T08:07:02.958Z,93940.38
2018-06-15T08:09:30.858Z,93943.84
2018-06-15T08:11:58.582Z,93944.78
2018-06-15T08:14:26.259Z,93943.28
2018-06-15T08:16:53.942Z,93944.10
2018-06-15T08:19:21.615Z,93942.76
2018-06-15T08:21:49.285Z,93936.96
2018-06-15T08:24:16.990Z,93944.74
2018-06-15T08:26:44.701Z,93943.81
2018-06-15T08:29:12.394Z,93937.12
2018-06-15T08:31:40.190Z,93934.75
2018-06-15T08:34:07.919Z,93938.19
2018-06-15T08:36:35.663Z,93935.11
2018-06-15T08:39:05.327Z,93939.39
2018-06-15T08:41:33.032Z,93937.25
2018-06-15T08:44:00.735Z,93935.33
2018-06-15T08:46:28.406Z,93930.02
2018-06-15T08:48:56.092Z,93934.52
2018-06-15T08:51:23.810Z,93928.94
2018-06-15T08:53:51.511Z,93928.88
2018-06-15T08:56:19.150Z,93928.44
2018-06-15T08:58:46.841Z,93928.35
2018-06-15T09:01:14.574Z,93934.55
2018-06-15T09:03:42.254Z,93930.33
2018-06-15T09:06:10.025Z,93930.65
2018-06-15T09:08:37.724Z,93926.73
2018-06-15T09:11:05.431Z,93927.27
2018-06-15T09:13:33.779Z,93923.95
2018-06-15T09:16:01.471Z,93927.78
2018-06-15T09:18:29.408Z,93929.60
2018-06-15T09:20:57.126Z,93926.30
2018-06-15T09:23:24.789Z,93928.29
2018-06-15T09:25:53.391Z,93925.14
2018-06-15T09:28:21.251Z,93930.83
2018-06-15T09:30:49.251Z,93931.22
2018-06-15T09:33:16.943Z,93934.30
2018-06-15T09:35:44.622Z,93935.19
2018-06-15T09:38:12.375Z,93941.07
2018-06-15T09:40:40.029Z,93925.79
2018-06-15T09:43:07.729Z,93931.09
2018-06-15T09:45:35.836Z,93931.15
2018-06-15T09:48:03.578Z,93926.80
2018-06-15T09:50:31.307Z,93927.39
2018-06-15T09:52:58.977Z,93930.40
2018-06-15T09:55:26.659Z,93928.75
2018-06-15T09:57:54.355Z,93929.26
2018-06-15T10:00:27.586Z,93929.19
2018-06-15T10:02:55.298Z,93927.75
2018-06-15T10:05:22.978Z,93927.13
2018-06-15T10:07:51.840Z,93930.92
2018-06-15T10:10:19.531Z,93923.52
2018-06-15T10:12:47.239Z,93929.82
2018-06-15T10:15:14.995Z,93923.28
2018-06-15T10:17:42.706Z,93927.63
2018-06-15T10:20:10.404Z,93925.22
2018-06-15T10:22:38.163Z,93927.35
2018-06-15T10:25:05.883Z,93920.57
2018-06-15T10:27:33.881Z,93918.00
2018-06-15T10:30:01.584Z,93919.57
2018-06-15T10:32:29.367Z,93917.65
2018-06-15T10:34:57.053Z,93918.85
2018-06-15T10:37:24.799Z,93917.00
2018-06-15T10:39:52.551Z,93917.96
2018-06-15T10:42:20.369Z,93910.63
2018-06-15T10:44:48.174Z,93906.84
2018-06-15T10:47:15.871Z,93912.47
2018-06-15T10:49:43.704Z,93913.55
2018-06-15T10:52:12.077Z,93910.52
2018-06-15T10:54:39.788Z,93905.72
2018-06-15T10:57:07.731Z,93911.72
2018-06-15T10:59:35.397Z,93898.59
2018-06-15T11:02:03.278Z,93897.40
2018-06-15T11:04:31.015Z,93907.49
2018-06-15T11:06:59.284Z,93904.24
2018-06-15T11:09:27.163Z,93894.87
2018-06-15T11:11:55.571Z,93897.27
2018-06-15T11:14:23.265Z,93891.66
2018-06-15T11:16:51.031Z,93897.06
2018-06-15T11:19:18.770Z,93892.48
2018-06-15T11:21:46.562Z,93891.66
2018-06-15T11:24:14.606Z,93894.16
2018-06-15T11:26:42.293Z,93893.75
2018-06-15T11:29:10.032Z,93891.77
2018-06-15T11:31:38.080Z,93887.97
2018-06-15T11:34:05.824Z,93894.88
2018-06-15T11:36:33.524Z,93895.33
2018-06-15T11:39:01.239Z,93896.70
2018-06-15T11:41:29.011Z,93898.86
2018-06-15T11:43:56.941Z,93898.56
2018-06-15T11:46:24.622Z,93894.65
2018-06-15T11:48:52.314Z,93897.51
2018-06-15T11:51:20.078Z,93895.06
2018-06-15T11:53:47.846Z,93888.86
2018-06-15T11:56:15.542Z,93892.34
2018-06-15T11:58:43.290Z,93894.48
2018-06-15T12:01:11.212Z,93886.07
2018-06-15T12:03:38.984Z,93885.89
2018-06-15T12:06:06.686Z,93888.53
2018-06-15T12:08:34.392Z,93890.41
2018-06-15T12:11:02.127Z,93888.69
2018-06-15T12:13:29.825Z,93889.12
2018-06-15T12:15:57.561Z,93883.00
2018-06-15T12:18:25.279Z,93887.34
2018-06-15T12:20:52.987Z,93889.61
2018-06-15T12:23:20.711Z,93892.59
2018-06-15T12:25:48.411Z,93887.77
2018-06-15T12:28:16.703Z,93886.42
2018-06-15T12:30:44.434Z,93883.32
2018-06-15T12:33:12.156Z,93883.05
2018-06-15T12:35:39.866Z,93879.74
2018-06-15T12:38:07.624Z,93883.30
2018-06-15T12:40:37.119Z,93875.52
2018-06-15T12:43:06.586Z,93875.20
2018-06-15T12:45:38.814Z,93878.88
2018-06-15T12:48:06.576Z,93879.11
2018-06-15T12:50:34.278Z,93884.12
2018-06-15T12:53:02.012Z,93876.56
2018-06-15T12:55:29.714Z,93875.23
2018-06-15T12:57:57.472Z,93871.77
2018-06-15T13:00:25.219Z,93875.33
2018-06-15T13:02:53.143Z,93869.06
2018-06-15T13:05:20.821Z,93868.31
2018-06-15T13:07:48.558Z,93865.67
2018-06-15T13:10:16.308Z,93864.07
2018-06-15T13:12:44.034Z,93863.80
2018-06-15T13:15:11.742Z,93869.65
2018-06-15T13:17:39.435Z,93876.18
2018-06-15T13:20:07.151Z,93861.72
2018-06-15T13:22:34.889Z,93867.59
2018-06-15T13:25:02.650Z,93863.88
2018-06-15T13:27:30.374Z,93864.16
2018-06-15T13:29:58.126Z,93871.94
2018-06-15T13:32:25.851Z,93867.95
2018-06-15T13:34:53.543Z,93870.88
2018-06-15T13:37:21.436Z,93863.88
2018-06-15T13:39:49.698Z,93860.89
2018-06-15T13:42:17.386Z,93859.84
2018-06-15T13:44:45.106Z,93859.88
2018-06-15T13:47:12.828Z,93867.09
2018-06-15T13:49:40.616Z,93864.41
2018-06-15T13:52:08.363Z,93856.95
2018-06-15T13:54:36.093Z,93861.22
2018-06-15T13:57:03.795Z,93864.14
2018-06-15T13:59:31.537Z,93864.73
2018-06-15T14:01:59.234Z,93861.79
2018-06-15T14:04:26.992Z,93866.34
2018-06-15T14:06:54.714Z,93867.16
2018-06-15T14:09:22.421Z,93864.48
2018-06-15T14:11:50.111Z,93870.09
2018-06-15T14:14:17.773Z,93862.08
2018-06-15T14:16:45.629Z,93862.59
2018-06-15T14:19:18.227Z,93865.80
2018-06-15T14:21:46.055Z,93860.72
2018-06-15T14:24:13.715Z,93861.24
2018-06-15T14:26:41.447Z,93860.14
2018-06-15T14:29:10.034Z,93858.55
2018-06-15T14:31:37.730Z,93855.11
2018-06-15T14:34:05.464Z,93854.32
2018-06-15T14:36:33.188Z,93858.60
2018-06-15T14:39:00.982Z,93858.58
2018-06-15T14:41:28.754Z,93850.86
2018-06-15T14:43:56.477Z,93844.44
2018-06-15T14:46:24.188Z,93841.47
2018-06-15T14:48:51.938Z,93846.82
2018-06-15T14:51:19.657Z,93852.72
2018-06-15T14:53:47.380Z,93843.36
2018-06-15T14:56:15.056Z,93853.80
2018-06-15T14:58:42.785Z,93842.78
2018-06-15T15:01:10.547Z,93841.73
2018-06-15T15:03:38.303Z,93840.63
2018-06-15T15:06:06.031Z,93840.65
2018-06-15T15:08:33.797Z,93841.44
2018-06-15T15:11:01.517Z,93840.92
2018-06-15T15:13:29.266Z,93840.38
2018-06-15T15:15:56.983Z,93847.30
2018-06-15T15:18:24.688Z,93846.78
2018-06-15T15:20:52.398Z,93850.50
2018-06-15T15:23:20.067Z,93844.61
2018-06-15T15:25:47.744Z,93841.94
2018-06-15T15:28:15.532Z,93841.16
2018-06-15T15:30:43.247Z,93844.04
2018-06-15T15:33:10.983Z,93842.99
2018-06-15T15:35:38.691Z,93839.22
2018-06-15T15:38:06.419Z,93842.91
2018-06-15T15:40:34.163Z,93849.85
2018-06-15T15:43:02.179Z,93842.87
2018-06-15T15:45:29.903Z,93842.36
2018-06-15T15:47:57.614Z,93838.62
2018-06-15T15:50:25.398Z,93839.69
2018-06-15T15:52:53.130Z,93838.05
2018-06-15T15:55:20.839Z,93839.68
2018-06-15T15:57:48.567Z,93835.38
2018-06-15T16:00:16.304Z,93832.98
2018-06-15T16:02:44.030Z,93830.30
2018-06-15T16:05:11.776Z,93833.74
2018-06-15T16:07:39.555Z,93832.64
2018-06-15T16:10:07.245Z,93833.70
2018-06-15T16:12:34.995Z,93837.92
2018-06-15T16:15:02.703Z,93832.56
2018-06-15T16:17:30.406Z,93839.25
2018-06-15T16:19:58.124Z,93836.29
2018-06-15T16:22:25.808Z,93838.96
2018-06-15T16:24:53.888Z,93841.16
2018-06-15T16:27:21.602Z,93843.28
2018-06-15T16:29:49.285Z,93837.34
2018-06-15T16:32:17.002Z,93841.63
2018-06-15T16:34:44.707Z,93835.80
2018-06-15T16:37:12.437Z,93831.78
2018-06-15T16:39:40.114Z,93839.55
2018-06-15T16:42:07.802Z,93835.77
2018-06-15T16:44:35.527Z,93834.13
2018-06-15T16:47:03.204Z,93833.62
2018-06-15T16:49:30.892Z,93835.25
2018-06-15T16:51:58.649Z,93844.75
2018-06-15T16:54:26.393Z,93847.70
2018-06-15T16:56:54.140Z,93847.34
2018-06-15T16:59:21.834Z,93845.53
2018-06-15T17:01:49.530Z,93847.03
2018-06-15T17:04:17.272Z,93847.59
2018-06-15T17:06:44.971Z,93836.08
2018-06-15T17:09:12.734Z,93845.23
2018-06-15T17:11:40.459Z,93847.53
2018-06-15T17:14:08.176Z,93841.67
2018-06-15T17:16:35.864Z,93845.17
2018-06-15T17:19:03.580Z,93846.11
2018-06-15T17:21:31.316Z,93854.11
2018-06-15T17:23:59.018Z,93855.44
2018-06-15T17:26:26.781Z,93860.28
2018-06-15T17:28:54.540Z,93858.88
2018-06-15T17:31:22.294Z,93852.12
2018-06-15T17:33:50.145Z,93852.39
2018-06-15T17:36:17.838Z,93850.84
2018-06-15T17:38:45.570Z,93852.46
2018-06-15T17:41:13.491Z,93854.74
2018-06-15T17:43:41.179Z,93858.42
2018-06-15T17:46:08.925Z,93863.55
2018-06-15T17:48:36.669Z,93859.72
2018-06-15T17:51:04.704Z,93862.62
2018-06-15T17:53:32.366Z,93856.70
2018-06-15T17:56:00.110Z,93858.63
2018-06-15T17:58:27.793Z,93859.36
2018-06-15T18:00:55.838Z,93862.80
2018-06-15T18:03:23.577Z,93865.30
2018-06-15T18:05:51.303Z,93867.69
2018-06-15T18:08:19.010Z,93867.97
2018-06-15T18:10:46.950Z,93871.56
2018-06-15T18:13:15.057Z,93867.92
2018-06-15T18:15:42.761Z,93870.78
2018-06-15T18:18:10.433Z,93873.11
2018-06-15T18:20:38.157Z,93872.83
2018-06-15T18:23:05.855Z,93872.97
2018-06-15T18:25:33.720Z,93871.82
2018-06-15T18:28:01.419Z,93880.32
2018-06-15T18:30:29.139Z,93873.86
2018-06-15T18:32:56.844Z,93876.91
2018-06-15T18:35:24.591Z,93884.97
2018-06-15T18:37:52.329Z,93883.58
2018-06-15T18:40:20.148Z,93886.07
2018-06-15T18:42:47.881Z,93885.20
2018-06-15T18:45:15.579Z,93888.52
2018-06-15T18:47:43.298Z,93891.13
2018-06-15T18:50:10.991Z,93886.73
2018-06-15T18:52:38.912Z,93884.22
2018-06-15T18:55:06.803Z,93885.92
2018-06-15T18:57:34.509Z,93890.34
2018-06-15T19:00:02.292Z,93896.86
2018-06-15T19:02:29.989Z,93897.89
2018-06-15T19:04:57.727Z,93895.64
2018-06-15T19:07:25.463Z,93901.48
2018-06-15T19:09:53.444Z,93901.20
2018-06-15T19:12:21.214Z,93903.59
2018-06-15T19:14:48.913Z,93902.09
2018-06-15T19:17:16.658Z,93899.53
2018-06-15T19:19:44.457Z,93899.80
2018-06-15T19:22:12.141Z,93901.00
2018-06-15T19:24:39.993Z,93898.57
2018-06-15T19:27:07.768Z,93905.35
2018-06-15T19:29:35.499Z,93909.63
2018-06-15T19:32:03.251Z,93902.27
2018-06-15T19:34:30.969Z,93902.92
2018-06-15T19:36:58.702Z,93909.45
2018-06-15T19:39:26.397Z,93908.47
2018-06-15T19:41:54.142Z,93910.25
2018-06-15T19:44:21.850Z,93906.47
2018-06-15T19:46:49.557Z,93912.39
2018-06-15T19:49:17.272Z,93909.45
2018-06-15T19:51:44.972Z,93911.47
2018-06-15T19:54:12.710Z,93911.93
2018-06-15T19:56:40.407Z,93910.98
2018-06-15T19:59:08.108Z,93915.17
2018-06-15T20:01:35.853Z,93911.96
2018-06-15T20:04:03.834Z,93913.56
2018-06-15T20:06:31.592Z,93909.56
2018-06-15T20:08:59.299Z,93911.66
2018-06-15T20:11:27.116Z,93911.72
2018-06-15T20:13:54.798Z,93912.63
2018-06-15T20:16:22.540Z,93911.86
2018-06-15T20:18:50.272Z,93910.91
2018-06-15T20:21:17.965Z,93912.60
2018-06-15T20:23:45.694Z,93912.05
2018-06-15T20:26:13.374Z,93908.04
2018-06-15T20:28:42.198Z,93908.26
2018-06-15T20:31:09.960Z,93912.05
2018-06-15T20:33:37.667Z,93915.35
2018-06-15T20:36:05.474Z,93917.48
2018-06-15T20:38:33.102Z,93919.89
2018-06-15T20:41:00.938Z,93919.34
2018-06-15T20:43:28.630Z,93920.96
2018-06-15T20:45:56.374Z,93921.88
2018-06-15T20:48:24.104Z,93930.02
2018-06-15T20:50:51.834Z,93925.13
2018-06-15T20:53:19.574Z,93923.39
2018-06-15T20:55:47.328Z,93927.06
2018-06-15T20:58:15.055Z,93931.70
2018-06-15T21:00:42.942Z,93929.36
2018-06-15T21:03:10.675Z,93921.66
2018-06-15T21:05:38.383Z,93917.83
2018-06-15T21:08:06.519Z,93922.31
2018-06-15T21:10:34.634Z,93921.34
2018-06-15T21:13:02.374Z,93924.31
2018-06-15T21:15:30.092Z,93927.39
2018-06-15T21:17:57.803Z,93930.12
2018-06-15T21:20:25.587Z,93931.66
2018-06-15T21:22:53.399Z,93930.77
2018-06-15T21:25:21.130Z,93927.98
2018-06-15T21:27:48.832Z,93930.83
2018-06-15T21:30:16.908Z,93935.24
2018-06-15T21:32:44.643Z,93936.41
2018-06-15T21:35:12.638Z,93940.08
2018-06-15T21:37:40.462Z,93931.55
2018-06-15T21:40:08.208Z,93933.76
2018-06-15T21:42:35.928Z,93932.05
2018-06-15T21:45:03.666Z,93930.23
2018-06-15T21:47:31.346Z,93929.73
2018-06-15T21:49:59.066Z,93931.25
2018-06-15T21:52:26.768Z,93931.59
2018-06-15T21:54:54.589Z,93939.30
2018-06-15T21:57:22.301Z,93938.54
2018-06-15T21:59:49.992Z,93937.22
2018-06-15T22:02:17.737Z,93931.73
2018-06-15T22:04:45.425Z,93936.20
2018-06-15T22:07:13.147Z,93936.05
2018-06-15T22:09:40.876Z,93933.77
2018-06-15T22:12:08.576Z,93938.80
2018-06-15T22:14:36.289Z,93938.90
2018-06-15T22:17:04.090Z,93937.30
2018-06-15T22:19:31.790Z,93936.95
2018-06-15T22:21:59.512Z,93937.27
2018-06-15T22:24:27.235Z,93935.69
2018-06-15T22:26:54.942Z,93929.59
2018-06-15T22:29:22.674Z,93926.81
2018-06-15T22:31:50.389Z,93935.80
2018-06-15T22:34:18.126Z,93932.45
2018-06-15T22:36:45.793Z,93930.66
2018-06-15T22:39:14.674Z,93927.16
2018-06-15T22:41:42.637Z,93928.78
2018-06-15T22:44:11.031Z,93926.39
2018-06-15T22:46:39.206Z,93937.08
2018-06-15T22:49:07.479Z,93932.22
2018-06-15T22:51:35.159Z,93934.91
2018-06-15T22:54:03.245Z,93927.58
2018-06-15T22:56:31.059Z,93933.02
2018-06-15T22:58:59.058Z,93924.76
2018-06-15T23:01:26.708Z,93928.88
2018-06-15T23:03:54.497Z,93924.45
2018-06-15T23:06:22.183Z,93926.63
2018-06-15T23:08:50.208Z,93924.88
2018-06-15T23:11:17.939Z,93921.66
2018-06-15T23:13:45.686Z,93919.84
2018-06-15T23:16:13.372Z,93918.30
2018-06-15T23:18:41.122Z,93916.52
2018-06-15T23:21:08.829Z,93914.75
2018-06-15T23:23:36.524Z,93913.32
2018-06-15T23:26:04.287Z,93921.52
2018-06-15T23:28:32.106Z,93915.72
2018-06-15T23:31:00.056Z,93917.84
2018-06-15T23:33:27.749Z,93920.28
2018-06-15T23:35:55.534Z,93915.77
2018-06-15T23:38:23.211Z,93919.67
2018-06-15T23:40:50.874Z,93914.64
2018-06-15T23:43:18.889Z,93915.08
2018-06-15T23:45:46.619Z,93915.05
2018-06-15T23:48:14.407Z,93910.02
2018-06-15T23:50:42.090Z,93910.22
2018-06-15T23:53:09.846Z,93911.59
2018-06-15T23:55:37.503Z,93912.00
2018-06-15T23:58:05.234Z,93912.11
